createdAt,value
2017-08-06T00:00:02.325Z,12.20
2017-08-06T00:02:29.869Z,11.20
2017-08-06T00:04:57.409Z,12.00
2017-08-06T00:07:24.917Z,12.47
2017-08-06T00:09:53.177Z,15.53
2017-08-06T00:12:21.453Z,11.77
2017-08-06T00:14:49.014Z,12.57
2017-08-06T00:17:16.657Z,20.83
2017-08-06T00:19:44.148Z,12.63
2017-08-06T00:22:11.731Z,11.83
2017-08-06T00:24:39.227Z,16.43
2017-08-06T00:27:07.608Z,13.27
2017-08-06T00:29:35.097Z,13.47
2017-08-06T00:32:02.609Z,14.00
2017-08-06T00:34:30.133Z,15.80
2017-08-06T00:36:57.693Z,15.20
2017-08-06T00:39:25.192Z,22.77
2017-08-06T00:41:52.804Z,13.13
2017-08-06T00:44:20.321Z,21.63
2017-08-06T00:46:47.867Z,19.40
2017-08-06T00:49:15.378Z,17.97
2017-08-06T00:51:43.673Z,16.23
2017-08-06T00:54:11.218Z,17.90
2017-08-06T00:56:38.717Z,16.50
2017-08-06T00:59:06.302Z,20.07
2017-08-06T01:01:33.794Z,18.63
2017-08-06T01:04:01.310Z,18.40
2017-08-06T01:06:28.827Z,18.60
2017-08-06T01:08:56.337Z,17.13
2017-08-06T01:11:23.931Z,18.23
2017-08-06T01:13:51.443Z,17.27
2017-08-06T01:16:19.719Z,21.57
2017-08-06T01:18:47.233Z,18.63
2017-08-06T01:21:14.829Z,18.60
2017-08-06T01:23:42.322Z,21.23
2017-08-06T01:26:09.921Z,17.27
2017-08-06T01:28:37.487Z,21.70
2017-08-06T01:31:04.992Z,18.40
2017-08-06T01:33:32.513Z,19.90
2017-08-06T01:36:00.073Z,22.77
2017-08-06T01:38:28.357Z,25.23
2017-08-06T01:40:55.866Z,26.73
2017-08-06T01:43:24.125Z,23.30
2017-08-06T01:45:51.707Z,28.63
2017-08-06T01:48:19.252Z,26.80
2017-08-06T01:50:46.794Z,30.57
2017-08-06T01:53:14.323Z,33.37
2017-08-06T01:55:41.821Z,27.53
2017-08-06T01:58:09.333Z,40.27
2017-08-06T02:00:36.868Z,42.10
2017-08-06T02:03:04.514Z,34.13
2017-08-06T02:05:32.061Z,39.87
2017-08-06T02:07:59.633Z,33.00
2017-08-06T02:10:27.154Z,42.27
2017-08-06T02:12:54.690Z,46.90
2017-08-06T02:15:22.181Z,36.53
2017-08-06T02:17:49.802Z,37.03
2017-08-06T02:20:17.319Z,41.50
2017-08-06T02:22:44.824Z,42.50
2017-08-06T02:25:12.329Z,34.90
2017-08-06T02:27:39.894Z,43.67
2017-08-06T02:30:07.409Z,35.80
2017-08-06T02:32:35.666Z,47.67
2017-08-06T02:35:03.949Z,47.50
2017-08-06T02:37:31.501Z,45.57
2017-08-06T02:39:59.025Z,44.10
2017-08-06T02:42:26.521Z,51.57
2017-08-06T02:44:54.051Z,43.60
2017-08-06T02:47:21.545Z,44.23
2017-08-06T02:49:49.843Z,47.20
2017-08-06T02:52:17.490Z,43.00
2017-08-06T02:54:45.122Z,47.50
2017-08-06T02:57:12.609Z,38.60
2017-08-06T02:59:40.107Z,47.40
2017-08-06T03:02:07.762Z,47.93
2017-08-06T03:04:35.315Z,45.10
2017-08-06T03:07:02.946Z,44.33
2017-08-06T03:09:30.494Z,38.77
2017-08-06T03:11:58.009Z,46.07
2017-08-06T03:14:26.267Z,39.73
2017-08-06T03:16:54.589Z,40.37
2017-08-06T03:19:22.179Z,46.60
2017-08-06T03:21:49.725Z,38.40
2017-08-06T03:24:17.313Z,40.03
2017-08-06T03:26:44.822Z,44.90
2017-08-06T03:29:12.353Z,44.87
2017-08-06T03:31:39.897Z,43.87
2017-08-06T03:34:07.569Z,41.10
2017-08-06T03:36:35.193Z,45.07
2017-08-06T03:39:02.733Z,41.30
2017-08-06T03:41:30.229Z,41.60
2017-08-06T03:43:57.821Z,45.00
2017-08-06T03:46:25.365Z,45.43
2017-08-06T03:48:52.910Z,43.83
2017-08-06T03:51:20.409Z,50.00
2017-08-06T03:53:48.702Z,43.00
2017-08-06T03:56:16.195Z,50.07
2017-08-06T03:58:43.709Z,53.07
2017-08-06T04:01:11.197Z,43.70
2017-08-06T04:03:38.710Z,38.97
2017-08-06T04:06:06.228Z,46.80
2017-08-06T04:08:33.722Z,42.80
2017-08-06T04:11:01.321Z,44.90
2017-08-06T04:13:28.860Z,44.17
2017-08-06T04:15:56.409Z,45.97
2017-08-06T04:18:23.896Z,42.07
2017-08-06T04:20:51.408Z,55.50
2017-08-06T04:23:18.898Z,48.17
2017-08-06T04:25:46.406Z,45.97
2017-08-06T04:28:13.949Z,51.33
2017-08-06T04:30:41.565Z,52.27
2017-08-06T04:33:09.052Z,46.13
2017-08-06T04:35:36.556Z,41.80
2017-08-06T04:38:04.049Z,41.73
2017-08-06T04:40:31.552Z,49.80
2017-08-06T04:42:59.037Z,43.00
2017-08-06T04:45:26.628Z,45.73
2017-08-06T04:47:54.116Z,46.33
2017-08-06T04:50:21.622Z,39.10
2017-08-06T04:52:49.121Z,45.63
2017-08-06T04:55:16.700Z,48.73
2017-08-06T04:57:44.209Z,41.80
2017-08-06T05:00:12.505Z,50.97
2017-08-06T05:02:40.060Z,47.70
2017-08-06T05:05:07.601Z,47.57
2017-08-06T05:07:35.132Z,44.93
2017-08-06T05:10:02.619Z,51.63
2017-08-06T05:12:30.124Z,46.50
2017-08-06T05:14:57.609Z,42.00
2017-08-06T05:17:25.120Z,41.67
2017-08-06T05:19:52.605Z,35.43
2017-08-06T05:22:20.112Z,41.13
2017-08-06T05:24:48.413Z,30.43
2017-08-06T05:27:15.973Z,31.47
2017-08-06T05:29:43.502Z,32.53
2017-08-06T05:32:11.041Z,32.57
2017-08-06T05:34:38.593Z,32.70
2017-08-06T05:37:06.087Z,33.07
2017-08-06T05:39:33.665Z,27.07
2017-08-06T05:42:01.227Z,31.03
2017-08-06T05:44:28.770Z,25.03
2017-08-06T05:46:56.401Z,28.63
2017-08-06T05:49:23.929Z,32.13
2017-08-06T05:51:51.495Z,23.90
2017-08-06T05:54:19.022Z,25.50
2017-08-06T05:56:46.523Z,28.50
2017-08-06T05:59:14.029Z,25.93
2017-08-06T06:01:41.573Z,29.33
2017-08-06T06:04:09.112Z,25.63
2017-08-06T06:06:36.654Z,26.77
2017-08-06T06:09:04.196Z,26.43
2017-08-06T06:11:31.737Z,26.57
2017-08-06T06:13:59.225Z,22.60
2017-08-06T06:16:26.762Z,28.13
2017-08-06T06:18:54.273Z,23.77
2017-08-06T06:21:22.545Z,25.97
2017-08-06T06:23:50.050Z,26.33
2017-08-06T06:26:17.584Z,20.13
2017-08-06T06:28:45.072Z,22.63
2017-08-06T06:31:12.635Z,19.73
2017-08-06T06:33:40.128Z,23.80
2017-08-06T06:36:07.717Z,25.20
2017-08-06T06:38:35.266Z,24.40
2017-08-06T06:41:02.804Z,27.27
2017-08-06T06:43:30.301Z,20.03
2017-08-06T06:45:57.822Z,22.60
2017-08-06T06:48:25.363Z,22.17
2017-08-06T06:50:52.880Z,20.00
2017-08-06T06:53:20.425Z,20.97
2017-08-06T06:55:47.969Z,18.57
2017-08-06T06:58:15.473Z,20.00
2017-08-06T07:00:43.161Z,19.93
2017-08-06T07:03:10.829Z,17.77
2017-08-06T07:05:38.327Z,17.70
2017-08-06T07:08:06.605Z,17.07
2017-08-06T07:10:34.098Z,17.00
2017-08-06T07:13:01.741Z,16.60
2017-08-06T07:15:29.240Z,17.20
2017-08-06T07:17:56.890Z,21.27
2017-08-06T07:20:24.453Z,16.10
2017-08-06T07:22:51.968Z,20.00
2017-08-06T07:25:19.477Z,16.40
2017-08-06T07:27:46.968Z,12.97
2017-08-06T07:30:14.505Z,13.87
2017-08-06T07:32:41.993Z,13.17
2017-08-06T07:35:10.289Z,13.57
2017-08-06T07:37:38.567Z,11.50
2017-08-06T07:40:06.135Z,10.77
2017-08-06T07:42:33.653Z,9.03
2017-08-06T07:45:01.221Z,15.93
2017-08-06T07:47:28.737Z,12.90
2017-08-06T07:49:56.293Z,9.57
2017-08-06T07:52:23.829Z,10.57
2017-08-06T07:54:51.309Z,9.97
2017-08-06T07:57:18.813Z,8.80
2017-08-06T07:59:46.364Z,11.93
2017-08-06T08:02:13.900Z,11.97
2017-08-06T08:04:41.385Z,9.80
2017-08-06T08:07:08.997Z,12.77
2017-08-06T08:09:36.559Z,6.87
2017-08-06T08:12:04.060Z,8.63
2017-08-06T08:14:32.345Z,13.50
2017-08-06T08:16:59.846Z,8.37
2017-08-06T08:19:27.343Z,7.37
2017-08-06T08:21:54.881Z,11.13
2017-08-06T08:24:22.361Z,7.20
2017-08-06T08:26:49.865Z,9.53
2017-08-06T08:29:17.354Z,6.10
2017-08-06T08:31:44.849Z,7.30
2017-08-06T08:34:12.401Z,6.10
2017-08-06T08:36:39.937Z,6.67
2017-08-06T08:39:07.484Z,5.00
2017-08-06T08:41:35.055Z,7.07
2017-08-06T08:44:02.573Z,2.80
2017-08-06T08:46:30.069Z,7.97
2017-08-06T08:48:57.665Z,2.87
2017-08-06T08:51:25.200Z,4.53
2017-08-06T08:53:52.704Z,4.27
2017-08-06T08:56:20.193Z,5.40
2017-08-06T08:58:47.736Z,6.80
2017-08-06T09:01:15.278Z,4.67
2017-08-06T09:03:42.825Z,4.37
2017-08-06T09:06:10.462Z,2.90
2017-08-06T09:08:38.216Z,3.13
2017-08-06T09:11:05.765Z,4.63
2017-08-06T09:13:33.263Z,4.23
2017-08-06T09:16:00.850Z,3.60
2017-08-06T09:18:28.847Z,1.80
2017-08-06T09:20:56.448Z,2.23
2017-08-06T09:23:24.092Z,3.13
2017-08-06T09:25:51.596Z,3.20
2017-08-06T09:28:19.077Z,2.40
2017-08-06T09:30:46.651Z,6.07
2017-08-06T09:33:14.133Z,7.63
2017-08-06T09:35:42.405Z,2.13
2017-08-06T09:38:10.688Z,3.27
2017-08-06T09:40:38.193Z,2.87
2017-08-06T09:43:05.674Z,4.07
2017-08-06T09:45:33.178Z,4.40
2017-08-06T09:48:00.673Z,4.00
2017-08-06T09:50:28.200Z,2.50
2017-08-06T09:52:55.685Z,8.10
2017-08-06T09:55:23.185Z,2.37
2017-08-06T09:57:50.728Z,3.17
2017-08-06T10:00:18.286Z,3.20
2017-08-06T10:02:45.817Z,2.40
2017-08-06T10:05:13.361Z,3.93
2017-08-06T10:07:40.909Z,2.90
2017-08-06T10:10:08.396Z,2.47
2017-08-06T10:12:35.905Z,3.17
2017-08-06T10:15:03.448Z,2.83
2017-08-06T10:17:30.989Z,3.00
2017-08-06T10:19:58.536Z,3.07
2017-08-06T10:22:26.080Z,3.23
2017-08-06T10:24:53.632Z,10.93
2017-08-06T10:27:21.199Z,3.17
2017-08-06T10:29:48.736Z,3.20
2017-08-06T10:32:16.225Z,2.10
2017-08-06T10:34:43.831Z,1.90
2017-08-06T10:37:11.345Z,3.73
2017-08-06T10:39:38.845Z,3.87
2017-08-06T10:42:06.433Z,5.90
2017-08-06T10:44:33.946Z,4.13
2017-08-06T10:47:02.206Z,2.93
2017-08-06T10:49:29.790Z,5.10
2017-08-06T10:51:57.430Z,1.77
2017-08-06T10:54:24.974Z,3.17
2017-08-06T10:56:52.517Z,3.10
2017-08-06T10:59:20.064Z,4.80
2017-08-06T11:01:47.710Z,2.80
2017-08-06T11:04:15.213Z,1.40
2017-08-06T11:06:42.797Z,1.63
2017-08-06T11:09:10.341Z,2.37
2017-08-06T11:11:37.884Z,3.50
2017-08-06T11:14:05.423Z,2.07
2017-08-06T11:16:32.917Z,3.03
2017-08-06T11:19:00.418Z,5.43
2017-08-06T11:21:28.063Z,2.40
2017-08-06T11:23:55.612Z,1.93
2017-08-06T11:26:23.152Z,2.70
2017-08-06T11:28:50.693Z,3.33
2017-08-06T11:31:18.193Z,1.60
2017-08-06T11:33:45.686Z,3.30
2017-08-06T11:36:13.189Z,2.90
2017-08-06T11:38:40.792Z,2.43
2017-08-06T11:41:08.313Z,1.93
2017-08-06T11:43:35.796Z,1.97
2017-08-06T11:46:03.322Z,3.03
2017-08-06T11:48:30.805Z,3.77
2017-08-06T11:50:59.117Z,2.07
2017-08-06T11:53:26.645Z,2.90
2017-08-06T11:55:54.150Z,2.73
2017-08-06T11:58:21.732Z,2.77
2017-08-06T12:00:49.282Z,3.33
2017-08-06T12:03:16.820Z,2.70
2017-08-06T12:05:44.300Z,1.77
2017-08-06T12:08:11.905Z,1.80
2017-08-06T12:10:39.454Z,2.23
2017-08-06T12:13:07.023Z,3.93
2017-08-06T12:15:34.557Z,2.30
2017-08-06T12:18:02.097Z,1.87
2017-08-06T12:20:29.581Z,2.67
2017-08-06T12:22:57.099Z,1.70
2017-08-06T12:25:24.617Z,4.63
2017-08-06T12:27:52.117Z,3.00
2017-08-06T12:30:19.604Z,1.67
2017-08-06T12:32:47.086Z,2.33
2017-08-06T12:35:14.584Z,2.73
2017-08-06T12:37:42.062Z,1.97
2017-08-06T12:40:09.572Z,2.03
2017-08-06T12:42:37.116Z,1.40
2017-08-06T12:45:04.856Z,3.73
2017-08-06T12:47:32.337Z,1.30
2017-08-06T12:49:59.849Z,1.80
2017-08-06T12:52:27.421Z,1.20
2017-08-06T12:54:54.937Z,1.20
2017-08-06T12:57:22.480Z,1.83
2017-08-06T12:59:50.132Z,0.97
2017-08-06T13:02:17.625Z,1.23
2017-08-06T13:04:45.213Z,2.90
2017-08-06T13:07:12.697Z,2.60
2017-08-06T13:09:40.301Z,4.83
2017-08-06T13:12:07.952Z,3.17
2017-08-06T13:14:35.444Z,2.00
2017-08-06T13:17:03.045Z,1.23
2017-08-06T13:19:30.549Z,2.30
2017-08-06T13:21:58.946Z,2.30
2017-08-06T13:24:26.424Z,1.77
2017-08-06T13:26:53.922Z,1.57
2017-08-06T13:29:21.489Z,1.53
2017-08-06T13:31:48.992Z,1.77
2017-08-06T13:34:17.308Z,1.20
2017-08-06T13:36:44.927Z,1.70
2017-08-06T13:39:12.497Z,1.87
2017-08-06T13:41:40.090Z,1.17
2017-08-06T13:44:08.344Z,1.23
2017-08-06T13:46:36.609Z,3.00
2017-08-06T13:49:04.102Z,1.67
2017-08-06T13:51:31.736Z,1.60
2017-08-06T13:53:59.272Z,2.80
2017-08-06T13:56:26.813Z,3.97
2017-08-06T13:58:54.357Z,1.50
2017-08-06T14:01:21.841Z,1.77
2017-08-06T14:03:49.337Z,1.57
2017-08-06T14:06:16.822Z,2.87
2017-08-06T14:08:44.433Z,2.70
2017-08-06T14:11:11.972Z,1.70
2017-08-06T14:13:39.530Z,2.30
2017-08-06T14:16:07.035Z,2.27
2017-08-06T14:18:34.533Z,2.33
2017-08-06T14:21:02.025Z,4.00
2017-08-06T14:23:29.525Z,2.20
2017-08-06T14:25:57.005Z,1.70
2017-08-06T14:28:24.500Z,3.60
2017-08-06T14:30:52.372Z,1.60
2017-08-06T14:33:19.985Z,3.57
2017-08-06T14:35:47.536Z,3.23
2017-08-06T14:38:15.077Z,1.50
2017-08-06T14:40:42.589Z,2.20
2017-08-06T14:43:10.849Z,3.80
2017-08-06T14:45:38.361Z,3.80
2017-08-06T14:48:05.893Z,2.07
2017-08-06T14:50:33.413Z,2.10
2017-08-06T14:53:01.058Z,1.70
2017-08-06T14:55:28.706Z,3.73
2017-08-06T14:57:56.188Z,2.83
2017-08-06T15:00:23.792Z,2.00
2017-08-06T15:02:51.273Z,2.43
2017-08-06T15:05:18.912Z,1.70
2017-08-06T15:07:46.436Z,2.63
2017-08-06T15:10:13.970Z,2.30
2017-08-06T15:12:41.513Z,2.83
2017-08-06T15:15:09.002Z,2.20
2017-08-06T15:17:36.600Z,2.03
2017-08-06T15:20:04.173Z,1.90
2017-08-06T15:22:31.681Z,2.07
2017-08-06T15:24:59.173Z,5.13
2017-08-06T15:27:27.437Z,3.50
2017-08-06T15:29:55.711Z,1.63
2017-08-06T15:32:23.231Z,1.73
2017-08-06T15:34:51.485Z,3.30
2017-08-06T15:37:19.781Z,3.73
2017-08-06T15:39:47.329Z,2.80
2017-08-06T15:42:14.865Z,2.40
2017-08-06T15:44:42.382Z,2.03
2017-08-06T15:47:10.633Z,4.23
2017-08-06T15:49:38.221Z,2.27
2017-08-06T15:52:05.761Z,1.80
2017-08-06T15:54:33.307Z,1.93
2017-08-06T15:57:00.976Z,2.53
2017-08-06T15:59:28.493Z,2.00
2017-08-06T16:01:55.973Z,1.83
2017-08-06T16:04:23.489Z,2.10
2017-08-06T16:06:50.984Z,4.37
2017-08-06T16:09:18.486Z,3.30
2017-08-06T16:11:45.970Z,2.30
2017-08-06T16:14:13.552Z,2.30
2017-08-06T16:16:41.033Z,4.40
2017-08-06T16:19:08.539Z,3.10
2017-08-06T16:21:36.021Z,3.40
2017-08-06T16:24:04.304Z,1.87
2017-08-06T16:26:31.851Z,2.27
2017-08-06T16:28:59.388Z,2.10
2017-08-06T16:31:26.901Z,2.00
2017-08-06T16:33:54.385Z,3.97
2017-08-06T16:36:21.933Z,4.63
2017-08-06T16:38:49.465Z,4.33
2017-08-06T16:41:16.965Z,3.13
2017-08-06T16:43:44.463Z,2.47
2017-08-06T16:46:11.980Z,2.20
2017-08-06T16:48:39.559Z,4.70
2017-08-06T16:51:07.075Z,5.07
2017-08-06T16:53:34.585Z,2.00
2017-08-06T16:56:02.101Z,3.93
2017-08-06T16:58:29.625Z,2.03
2017-08-06T17:00:57.126Z,2.23
2017-08-06T17:03:25.374Z,2.87
2017-08-06T17:05:52.885Z,2.37
2017-08-06T17:08:20.407Z,3.60
2017-08-06T17:10:47.953Z,3.40
2017-08-06T17:13:15.469Z,2.17
2017-08-06T17:15:43.716Z,3.93
2017-08-06T17:18:12.001Z,2.67
2017-08-06T17:20:39.501Z,2.03
2017-08-06T17:23:07.088Z,2.03
2017-08-06T17:25:34.640Z,2.00
2017-08-06T17:28:02.145Z,4.97
2017-08-06T17:30:29.629Z,3.53
2017-08-06T17:32:57.165Z,1.93
2017-08-06T17:35:24.708Z,2.90
2017-08-06T17:37:52.249Z,3.50
2017-08-06T17:40:19.817Z,2.67
2017-08-06T17:42:47.446Z,1.60
2017-08-06T17:45:15.005Z,3.10
2017-08-06T17:47:42.513Z,2.47
2017-08-06T17:50:10.805Z,2.03
2017-08-06T17:52:38.284Z,2.27
2017-08-06T17:55:05.785Z,3.53
2017-08-06T17:57:33.265Z,2.33
2017-08-06T18:00:00.802Z,2.90
2017-08-06T18:02:28.316Z,2.40
2017-08-06T18:04:55.817Z,4.40
2017-08-06T18:07:23.393Z,2.13
2017-08-06T18:09:50.937Z,2.40
2017-08-06T18:12:18.421Z,2.40
2017-08-06T18:14:46.055Z,2.53
2017-08-06T18:17:13.537Z,2.40
2017-08-06T18:19:41.092Z,2.93
2017-08-06T18:22:08.633Z,3.30
2017-08-06T18:24:36.181Z,2.13
2017-08-06T18:27:03.665Z,2.57
2017-08-06T18:29:31.153Z,1.70
2017-08-06T18:31:58.662Z,2.97
2017-08-06T18:34:26.249Z,2.80
2017-08-06T18:36:53.765Z,2.40
2017-08-06T18:39:22.024Z,2.67
2017-08-06T18:41:50.297Z,2.87
2017-08-06T18:44:18.552Z,2.43
2017-08-06T18:46:46.818Z,3.60
2017-08-06T18:49:15.097Z,2.53
2017-08-06T18:51:42.597Z,2.10
2017-08-06T18:54:10.087Z,3.47
2017-08-06T18:56:37.605Z,1.90
2017-08-06T18:59:05.886Z,1.70
2017-08-06T19:01:33.397Z,2.07
2017-08-06T19:04:01.649Z,1.80
2017-08-06T19:06:29.246Z,3.50
2017-08-06T19:08:56.781Z,3.40
2017-08-06T19:11:24.351Z,3.70
2017-08-06T19:13:51.900Z,5.53
2017-08-06T19:16:19.386Z,2.10
2017-08-06T19:18:46.921Z,3.40
2017-08-06T19:21:14.405Z,1.83
2017-08-06T19:23:41.936Z,4.00
2017-08-06T19:26:09.488Z,2.23
2017-08-06T19:28:36.988Z,3.27
2017-08-06T19:31:04.469Z,3.97
2017-08-06T19:33:31.980Z,3.27
2017-08-06T19:35:59.476Z,4.80
2017-08-06T19:38:26.957Z,1.93
2017-08-06T19:40:54.461Z,2.63
2017-08-06T19:43:21.978Z,8.07
2017-08-06T19:45:49.485Z,3.30
2017-08-06T19:48:17.049Z,3.13
2017-08-06T19:50:44.554Z,3.83
2017-08-06T19:53:12.843Z,3.40
2017-08-06T19:55:40.349Z,4.17
2017-08-06T19:58:07.833Z,3.60
2017-08-06T20:00:35.501Z,5.53
2017-08-06T20:03:02.980Z,3.77
2017-08-06T20:05:30.560Z,4.50
2017-08-06T20:07:58.061Z,3.53
2017-08-06T20:10:25.565Z,7.80
2017-08-06T20:12:53.048Z,5.07
2017-08-06T20:15:20.545Z,6.47
2017-08-06T20:17:48.033Z,4.30
2017-08-06T20:20:15.546Z,5.63
2017-08-06T20:22:43.092Z,4.83
2017-08-06T20:25:10.581Z,3.60
2017-08-06T20:27:38.173Z,3.30
2017-08-06T20:30:05.656Z,3.50
2017-08-06T20:32:33.267Z,6.17
2017-08-06T20:35:00.816Z,10.07
2017-08-06T20:37:28.367Z,5.27
2017-08-06T20:39:55.896Z,5.57
2017-08-06T20:42:23.401Z,6.33
2017-08-06T20:44:50.884Z,5.03
2017-08-06T20:47:18.429Z,5.47
2017-08-06T20:49:45.912Z,10.10
2017-08-06T20:52:13.417Z,5.30
2017-08-06T20:54:40.956Z,13.97
2017-08-06T20:57:08.600Z,6.67
2017-08-06T20:59:36.085Z,6.67
2017-08-06T21:02:03.577Z,5.13
2017-08-06T21:04:31.145Z,5.63
2017-08-06T21:06:58.637Z,5.57
2017-08-06T21:09:26.140Z,7.03
2017-08-06T21:11:53.625Z,5.53
2017-08-06T21:14:21.132Z,7.70
2017-08-06T21:16:48.621Z,8.77
2017-08-06T21:19:16.170Z,10.93
2017-08-06T21:21:43.713Z,5.47
2017-08-06T21:24:11.252Z,5.70
2017-08-06T21:26:38.793Z,4.13
2017-08-06T21:29:06.297Z,4.90
2017-08-06T21:31:33.882Z,4.60
2017-08-06T21:34:01.380Z,4.53
2017-08-06T21:36:28.865Z,4.17
2017-08-06T21:38:56.418Z,5.73
2017-08-06T21:41:23.913Z,5.60
2017-08-06T21:43:51.395Z,6.97
2017-08-06T21:46:18.949Z,4.17
2017-08-06T21:48:46.489Z,5.80
2017-08-06T21:51:14.057Z,4.17
2017-08-06T21:53:41.568Z,7.50
2017-08-06T21:56:09.077Z,4.60
2017-08-06T21:58:36.661Z,4.50
2017-08-06T22:01:04.165Z,7.20
2017-08-06T22:03:31.736Z,8.47
2017-08-06T22:06:00.109Z,9.50
2017-08-06T22:08:27.600Z,6.90
2017-08-06T22:10:55.101Z,5.53
2017-08-06T22:13:23.416Z,5.27
2017-08-06T22:15:50.933Z,6.47
2017-08-06T22:18:18.418Z,4.77
2017-08-06T22:20:45.900Z,6.80
2017-08-06T22:23:13.400Z,5.50
2017-08-06T22:25:40.955Z,8.33
2017-08-06T22:28:08.453Z,4.57
2017-08-06T22:30:35.936Z,8.80
2017-08-06T22:33:03.437Z,5.07
2017-08-06T22:35:31.157Z,5.60
2017-08-06T22:37:58.665Z,5.77
2017-08-06T22:40:26.150Z,5.30
2017-08-06T22:42:53.652Z,4.97
2017-08-06T22:45:21.208Z,7.60
2017-08-06T22:47:48.749Z,6.10
2017-08-06T22:50:16.293Z,4.83
2017-08-06T22:52:43.797Z,7.90
2017-08-06T22:55:11.280Z,6.47
2017-08-06T22:57:38.861Z,7.83
2017-08-06T23:00:06.496Z,4.90
2017-08-06T23:02:34.013Z,8.73
2017-08-06T23:05:01.556Z,6.20
2017-08-06T23:07:29.038Z,6.73
2017-08-06T23:09:56.609Z,7.73
2017-08-06T23:12:24.193Z,5.90
2017-08-06T23:14:51.697Z,8.43
2017-08-06T23:17:19.229Z,5.27
2017-08-06T23:19:46.764Z,6.60
2017-08-06T23:22:14.241Z,4.50
2017-08-06T23:24:41.749Z,8.20
2017-08-06T23:27:09.305Z,6.13
2017-08-06T23:29:36.809Z,5.80
2017-08-06T23:32:05.065Z,9.07
2017-08-06T23:34:32.552Z,5.67
2017-08-06T23:37:00.057Z,6.47
2017-08-06T23:39:27.630Z,7.00
2017-08-06T23:41:55.177Z,5.73
2017-08-06T23:44:22.663Z,5.60
2017-08-06T23:46:50.162Z,5.50
2017-08-06T23:49:17.706Z,7.37
2017-08-06T23:51:45.257Z,4.73
2017-08-06T23:54:12.737Z,9.40
2017-08-06T23:56:40.235Z,4.67
2017-08-06T23:59:07.780Z,4.77
